Terminal Aerodrome Forecast
Issued by NWS Twin Cities, MN

Current Version | Previous Version | Text Only | Print | Product List | Glossary On
Versions: 1 2 3 4 5 6 7 8 9 10 11 12 13 14 15 16
741
FTUS43 KMPX 211740
TAFEAU
TAF
KEAU 211740Z 2118/2218 18006KT P6SM FEW010
     FM212000 18010KT P6SM FEW250
     FM220000 19006KT P6SM SCT250
     FM221000 19003KT 3SM BR FEW250
     FM221500 20005KT P6SM BKN100=

USA.gov is the U.S. government's official web portal to all federal, state and local government web resources and services.